Time;durP1;ratioP1;P1;durP2;ratioP2;P2;SDS_P1;SDS_P2;PMS_P1;PMS_P2;Temp;Humidity;BMP_temperature;BMP_pressure;BME280_temperature;BME280_humidity;BME280_pressure;Samples;Min_cycle;Max_cycle;Signal;HPM_P1;HPM_P2
2021/05/28 00:00:31;;;;;;;1.33;0.90;;;;;;;8.62;95.87;101443.66;6221952;28;20221;-71
2021/05/28 00:03:35;;;;;;;0.65;0.65;;;;;;;8.79;95.26;101445.13;6220303;28;20233;-70
2021/05/28 00:06:40;;;;;;;1.10;1.10;;;;;;;8.79;94.68;101439.69;6221823;28;20186;-70
2021/05/28 00:09:44;;;;;;;0.80;0.80;;;;;;;8.79;94.53;101439.69;6221713;28;20186;-70
2021/05/28 00:12:48;;;;;;;0.80;0.80;;;;;;;8.80;94.95;101446.81;6220458;28;20186;-71
2021/05/28 00:15:52;;;;;;;0.85;0.85;;;;;;;8.69;95.22;101450.00;6220365;28;20492;-71
2021/05/28 00:18:55;;;;;;;0.90;0.90;;;;;;;8.69;95.48;101455.47;6220385;28;20473;-71
2021/05/28 00:22:00;;;;;;;1.33;0.80;;;;;;;8.83;94.04;101451.84;6221440;28;20198;-71
2021/05/28 00:25:04;;;;;;;0.90;0.90;;;;;;;8.85;94.29;101459.00;6221247;28;20186;-71
2021/05/28 00:28:09;;;;;;;0.95;0.95;;;;;;;8.79;93.72;101450.56;6220243;28;20186;-71
2021/05/28 00:31:13;;;;;;;1.00;1.00;;;;;;;8.58;94.16;101458.66;6220066;28;20441;-71
2021/05/28 00:34:16;;;;;;;0.80;0.80;;;;;;;8.36;93.73;101426.13;6220267;28;20414;-71
2021/05/28 00:37:21;;;;;;;1.00;1.00;;;;;;;8.64;94.49;101479.66;6221138;28;20198;-70
2021/05/28 00:40:25;;;;;;;0.98;0.98;;;;;;;8.73;93.25;101462.19;6221022;28;20197;-71
2021/05/28 00:43:29;;;;;;;0.93;0.93;;;;;;;8.69;93.55;101471.78;6220398;28;20217;-70
2021/05/28 00:46:33;;;;;;;1.05;1.05;;;;;;;8.65;93.97;101467.72;6220440;28;20448;-71
2021/05/28 00:49:37;;;;;;;1.00;1.00;;;;;;;8.72;94.64;101482.28;6203919;28;20201;-71
2021/05/28 00:52:41;;;;;;;1.02;0.93;;;;;;;8.52;94.75;101464.88;6221203;28;20213;-71
2021/05/28 00:55:45;;;;;;;1.27;0.90;;;;;;;8.77;94.50;101490.72;6220928;28;20218;-71
2021/05/28 00:58:56;;;;;;;0.85;0.85;;;;;;;8.68;95.12;101497.28;6221383;28;20186;-71
2021/05/28 01:02:00;;;;;;;1.05;1.05;;;;;;;8.69;95.41;101493.53;6221083;28;20245;-71
2021/05/28 01:05:04;;;;;;;0.90;0.90;;;;;;;8.66;96.38;101487.63;6221066;28;20242;-71
2021/05/28 01:08:09;;;;;;;0.90;0.90;;;;;;;8.73;95.37;101499.47;6218749;28;20187;-70
2021/05/28 01:11:14;;;;;;;0.82;0.82;;;;;;;8.76;96.12;101502.63;6217187;28;20280;-70
2021/05/28 01:14:18;;;;;;;0.93;0.93;;;;;;;8.76;95.57;101516.22;6217160;28;20225;-70
2021/05/28 01:17:21;;;;;;;0.80;0.80;;;;;;;8.67;96.81;101501.06;6217111;28;20233;-71
2021/05/28 01:20:25;;;;;;;0.90;0.90;;;;;;;8.75;96.72;101508.28;6216855;28;20214;-70
2021/05/28 01:23:30;;;;;;;3.20;1.00;;;;;;;8.74;95.99;101512.00;6217046;28;20186;-71
2021/05/28 01:26:34;;;;;;;1.20;0.85;;;;;;;8.73;96.02;101505.72;6217144;28;20186;-71
2021/05/28 01:29:37;;;;;;;1.00;1.00;;;;;;;8.66;95.67;101504.81;6216484;28;20194;-70
2021/05/28 01:32:42;;;;;;;1.10;1.10;;;;;;;8.62;94.85;101511.66;6215457;28;20386;-70
2021/05/28 01:35:45;;;;;;;0.88;0.88;;;;;;;8.74;94.90;101518.31;6198875;28;20468;-71
2021/05/28 01:38:50;;;;;;;1.00;1.00;;;;;;;8.80;93.62;101512.13;6215725;28;20245;-71
2021/05/28 01:41:53;;;;;;;0.90;0.90;;;;;;;8.75;93.96;101511.84;6198405;28;20221;-70
2021/05/28 01:44:58;;;;;;;0.82;0.82;;;;;;;8.70;94.81;101516.16;6216194;28;20298;-71
2021/05/28 01:48:02;;;;;;;0.80;0.80;;;;;;;8.58;94.78;101485.84;6216496;28;20193;-70
2021/05/28 01:51:07;;;;;;;0.98;0.98;;;;;;;8.81;93.93;101521.09;6215025;28;20588;-70
2021/05/28 01:54:11;;;;;;;1.02;1.02;;;;;;;8.84;93.99;101520.72;6215007;28;20481;-70
2021/05/28 01:57:15;;;;;;;1.00;1.00;;;;;;;8.73;94.01;101494.84;6216328;28;20186;-70
2021/05/28 02:00:19;;;;;;;1.00;1.00;;;;;;;8.81;94.35;101518.38;6216134;28;20187;-71
2021/05/28 02:03:24;;;;;;;0.88;0.88;;;;;;;8.80;94.55;101523.00;6215165;28;20248;-70
2021/05/28 02:06:27;;;;;;;0.98;0.98;;;;;;;8.92;93.61;101517.91;6214572;28;20233;-71
2021/05/28 02:09:32;;;;;;;1.00;1.00;;;;;;;8.83;93.77;101521.78;6216008;28;20190;-71
2021/05/28 02:12:36;;;;;;;0.90;0.90;;;;;;;8.85;94.14;101524.31;6215771;28;20241;-71
2021/05/28 02:15:40;;;;;;;1.20;1.10;;;;;;;8.67;94.67;101530.97;6215507;28;20269;-71
2021/05/28 02:18:44;;;;;;;1.77;1.70;;;;;;;8.72;95.55;101531.25;6215198;28;20194;-71
2021/05/28 02:21:48;;;;;;;1.20;1.20;;;;;;;8.78;95.35;101530.50;6196707;28;20453;-71
2021/05/28 02:24:53;;;;;;;1.45;1.30;;;;;;;8.83;96.01;101529.94;6215295;28;20225;-70
2021/05/28 02:27:57;;;;;;;1.20;1.20;;;;;;;8.93;95.92;101527.78;6215247;28;20186;-71
2021/05/28 02:31:01;;;;;;;2.15;1.30;;;;;;;8.95;95.46;101530.28;6215073;28;20253;-71
2021/05/28 02:34:05;;;;;;;1.20;1.20;;;;;;;8.95;95.83;101535.75;6213966;28;20493;-71
2021/05/28 02:37:08;;;;;;;1.40;1.40;;;;;;;8.61;95.30;101504.53;6214345;28;20422;-69
2021/05/28 02:40:14;;;;;;;1.20;1.20;;;;;;;8.96;95.24;101542.88;6213835;28;20415;-71
2021/05/28 02:43:18;;;;;;;1.35;1.35;;;;;;;8.97;94.77;101550.00;6214947;28;20270;-71
2021/05/28 02:46:21;;;;;;;1.50;1.50;;;;;;;8.97;94.33;101550.00;6213774;28;20500;-71
2021/05/28 02:49:25;;;;;;;1.40;1.40;;;;;;;8.98;94.50;101562.59;6213601;28;20186;-71
2021/05/28 02:52:29;;;;;;;1.58;1.58;;;;;;;8.89;95.28;101563.69;6213480;28;20220;-71
2021/05/28 02:55:33;;;;;;;1.55;1.55;;;;;;;8.96;94.84;101553.78;6214647;28;20186;-70
2021/05/28 02:58:38;;;;;;;1.48;1.40;;;;;;;9.04;94.00;101567.28;6215082;28;20186;-70
2021/05/28 03:01:41;;;;;;;1.92;1.92;;;;;;;8.79;94.33;101567.56;6213302;28;20190;-70
2021/05/28 03:04:45;;;;;;;1.70;1.70;;;;;;;8.88;93.88;101575.63;6214419;28;20304;-70
2021/05/28 03:07:49;;;;;;;1.70;1.70;;;;;;;8.85;94.57;101573.28;6195693;28;20202;-70
2021/05/28 03:10:54;;;;;;;1.65;1.55;;;;;;;8.85;94.29;101581.44;6213293;28;20225;-71
2021/05/28 03:13:57;;;;;;;1.67;1.67;;;;;;;8.66;95.91;101575.53;6214509;28;20218;-70
2021/05/28 03:17:01;;;;;;;1.80;1.80;;;;;;;8.89;94.96;101588.19;6213214;28;20492;-70
2021/05/28 03:20:15;;;;;;;2.20;2.10;;;;;;;8.88;94.58;101589.25;6213489;28;20193;-70
2021/05/28 03:23:19;;;;;;;2.75;2.30;;;;;;;8.81;94.37;101587.25;6212824;28;20410;-70
2021/05/28 03:26:24;;;;;;;2.17;2.17;;;;;;;8.83;94.58;101598.78;6212918;28;20210;-71
2021/05/28 03:29:28;;;;;;;2.45;2.33;;;;;;;8.83;93.86;101596.06;6212906;28;20186;-70
2021/05/28 03:32:32;;;;;;;2.10;2.10;;;;;;;8.94;93.71;101599.34;6212361;28;20241;-70
2021/05/28 03:35:36;;;;;;;2.38;2.20;;;;;;;8.94;93.57;101604.78;6213087;28;20269;-71
2021/05/28 03:38:39;;;;;;;2.55;2.45;;;;;;;8.64;94.63;101582.19;6213673;28;20186;-70
2021/05/28 03:41:44;;;;;;;2.50;2.40;;;;;;;8.76;93.64;101600.59;6213725;28;20190;-70
2021/05/28 03:44:47;;;;;;;2.60;2.60;;;;;;;8.70;93.46;101598.63;6213997;28;20224;-70
2021/05/28 03:47:51;;;;;;;2.75;2.67;;;;;;;8.79;93.89;101608.38;6213984;28;20225;-70
2021/05/28 03:50:55;;;;;;;3.25;3.00;;;;;;;8.78;93.94;101598.50;6213876;28;20286;-70
2021/05/28 03:53:58;;;;;;;2.95;2.85;;;;;;;8.87;93.60;101609.31;6214226;28;20281;-70
2021/05/28 03:57:03;;;;;;;3.17;2.90;;;;;;;8.81;93.36;101584.53;6212486;28;20414;-70
2021/05/28 04:00:09;;;;;;;2.85;2.75;;;;;;;9.00;92.21;101618.50;6213446;28;20233;-70
2021/05/28 04:03:18;;;;;;;3.03;3.03;;;;;;;8.81;93.08;101628.06;6213850;28;20201;-71
2021/05/28 04:06:21;;;;;;;3.10;3.00;;;;;;;8.86;92.64;101629.41;6212638;28;20288;-70
2021/05/28 04:09:25;;;;;;;3.40;3.30;;;;;;;8.75;93.35;101628.84;6213660;28;20186;-70
2021/05/28 04:12:30;;;;;;;3.90;3.70;;;;;;;8.94;92.42;101632.00;6213476;28;20241;-70
2021/05/28 04:15:34;;;;;;;3.53;3.33;;;;;;;8.68;93.34;101638.75;6213533;28;20228;-71
2021/05/28 04:18:38;;;;;;;4.43;4.10;;;;;;;8.74;93.46;101645.31;6212246;28;20225;-71
2021/05/28 04:21:42;;;;;;;4.20;4.00;;;;;;;8.82;93.10;101643.38;6213476;28;20186;-71
2021/05/28 04:24:45;;;;;;;4.70;4.40;;;;;;;8.87;93.22;101636.53;6212136;28;20473;-71
2021/05/28 04:27:50;;;;;;;5.45;4.97;;;;;;;8.78;94.19;101650.22;6212859;28;20233;-71
2021/05/28 04:30:54;;;;;;;5.47;5.03;;;;;;;8.68;94.56;101646.91;6213187;28;20186;-71
2021/05/28 04:33:58;;;;;;;5.45;5.03;;;;;;;8.74;94.45;101653.50;6212918;28;20245;-71
2021/05/28 04:37:02;;;;;;;7.45;5.88;;;;;;;8.82;93.60;101646.09;6212998;28;20253;-71
2021/05/28 04:40:07;;;;;;;7.15;6.05;;;;;;;8.70;93.74;101644.88;6213034;28;20197;-71
2021/05/28 04:43:15;;;;;;;6.72;6.18;;;;;;;8.74;95.08;101648.91;6214340;28;20195;-70
2021/05/28 04:46:18;;;;;;;6.97;6.28;;;;;;;8.83;94.12;101652.41;6217458;28;20186;-70
2021/05/28 04:49:22;;;;;;;7.93;6.30;;;;;;;8.65;95.28;101650.00;6199860;28;20244;-71
2021/05/28 04:52:26;;;;;;;5.85;5.40;;;;;;;8.60;94.50;101662.50;6216423;28;20377;-71
2021/05/28 04:55:30;;;;;;;6.10;5.60;;;;;;;8.35;94.53;101631.94;6217258;28;20192;-71
2021/05/28 04:58:35;;;;;;;5.57;5.07;;;;;;;8.71;94.24;101681.06;6217446;28;20198;-71
2021/05/28 05:01:41;;;;;;;6.60;5.88;;;;;;;8.78;94.17;101661.09;6217243;28;20254;-71
2021/05/28 05:04:45;;;;;;;6.57;5.95;;;;;;;8.80;93.82;101664.50;6216691;28;20238;-71
2021/05/28 05:07:49;;;;;;;6.28;5.78;;;;;;;8.86;94.24;101675.66;6216943;28;20218;-71
2021/05/28 05:10:53;;;;;;;7.90;6.53;;;;;;;8.90;93.84;101674.25;6216154;28;20412;-71
2021/05/28 05:13:57;;;;;;;6.43;5.93;;;;;;;8.77;93.60;101681.19;6216850;28;20272;-71
2021/05/28 05:17:01;;;;;;;6.15;5.68;;;;;;;8.66;94.43;101680.78;6216843;28;20186;-71
2021/05/28 05:20:08;;;;;;;6.57;5.10;;;;;;;8.50;94.31;101673.59;6215787;28;20469;-72
2021/05/28 05:23:12;;;;;;;5.90;5.35;;;;;;;8.57;94.59;101671.88;6216223;28;20190;-71
2021/05/28 05:26:16;;;;;;;6.35;5.32;;;;;;;8.52;95.28;101660.69;6216462;28;20186;-71
2021/05/28 05:29:20;;;;;;;5.70;5.25;;;;;;;8.38;95.33;101631.56;6216406;28;20186;-71
2021/05/28 05:32:24;;;;;;;5.70;5.18;;;;;;;8.59;95.25;101656.19;6215354;28;20210;-71
2021/05/28 05:35:27;;;;;;;6.47;5.80;;;;;;;8.76;94.58;101674.03;6216545;28;20225;-71
2021/05/28 05:38:31;;;;;;;7.55;4.90;;;;;;;8.63;94.72;101678.41;6216050;28;20249;-71
2021/05/28 05:41:35;;;;;;;5.78;5.32;;;;;;;8.74;94.77;101684.28;6216003;28;20218;-71
2021/05/28 05:44:39;;;;;;;5.50;5.20;;;;;;;8.81;93.54;101677.06;6216094;28;20261;-71
2021/05/28 05:47:44;;;;;;;6.55;5.80;;;;;;;8.73;93.69;101685.28;6216161;28;20233;-71
2021/05/28 05:50:48;;;;;;;5.65;5.15;;;;;;;8.79;93.42;101690.00;6216132;28;20270;-71
2021/05/28 05:53:52;;;;;;;7.70;5.88;;;;;;;8.73;94.25;101657.25;6215471;28;20214;-71
2021/05/28 05:56:56;;;;;;;6.25;5.50;;;;;;;8.86;94.34;101672.94;6214762;28;20538;-71
2021/05/28 06:00:00;;;;;;;5.93;5.50;;;;;;;9.09;93.54;101676.44;6215787;28;20194;-72
2021/05/28 06:03:12;;;;;;;6.45;5.85;;;;;;;9.22;92.20;101690.22;6215529;28;20206;-72
2021/05/28 06:06:16;;;;;;;6.55;5.95;;;;;;;9.07;93.18;101681.22;6214764;28;20333;-71
2021/05/28 06:09:19;;;;;;;7.35;5.97;;;;;;;9.03;93.20;101682.63;6215739;28;20186;-71
2021/05/28 06:12:23;;;;;;;6.05;5.50;;;;;;;9.13;92.12;101694.94;6214814;28;20186;-71
2021/05/28 06:15:28;;;;;;;6.20;5.80;;;;;;;8.94;93.20;101670.13;6215658;28;20186;-71
2021/05/28 06:18:32;;;;;;;6.43;5.63;;;;;;;9.22;91.59;101687.50;6215678;28;20186;-70
2021/05/28 06:21:36;;;;;;;5.88;5.38;;;;;;;9.27;91.13;101698.72;6214341;28;20412;-70
2021/05/28 06:24:39;;;;;;;5.50;5.20;;;;;;;9.29;91.38;101691.19;6214143;28;20294;-70
2021/05/28 06:27:43;;;;;;;5.85;5.38;;;;;;;9.50;91.03;101693.97;6215054;28;20272;-70
2021/05/28 06:30:48;;;;;;;6.47;5.20;;;;;;;9.48;90.16;101696.03;6215050;28;20218;-72
2021/05/28 06:33:51;;;;;;;5.78;5.22;;;;;;;9.24;90.95;101709.97;6213887;28;20521;-71
2021/05/28 06:36:55;;;;;;;5.38;4.97;;;;;;;9.27;90.85;101687.81;6215157;28;20210;-71
2021/05/28 06:39:59;;;;;;;6.03;5.45;;;;;;;9.25;90.93;101700.75;6214762;28;20186;-71
2021/05/28 06:43:03;;;;;;;5.75;5.38;;;;;;;9.21;90.61;101702.16;6214924;28;20212;-73
2021/05/28 06:46:08;;;;;;;6.43;5.82;;;;;;;9.27;91.64;101698.72;6213927;28;20194;-71
2021/05/28 06:49:11;;;;;;;5.50;5.20;;;;;;;9.35;90.92;101713.06;6213510;28;20241;-70
2021/05/28 06:52:15;;;;;;;5.85;5.35;;;;;;;9.29;91.88;101707.53;6214146;28;20217;-71
2021/05/28 06:55:18;;;;;;;6.22;5.72;;;;;;;9.33;91.30;101704.22;6213755;28;20241;-70
2021/05/28 06:58:28;;;;;;;6.90;5.55;;;;;;;9.42;91.14;101708.53;6214073;28;20233;-70
2021/05/28 07:01:33;;;;;;;6.07;5.40;;;;;;;9.45;91.15;101707.31;6213492;28;20218;-72
2021/05/28 07:04:38;;;;;;;5.97;5.50;;;;;;;9.54;90.68;101703.47;6213503;28;20492;-71
2021/05/28 07:07:42;;;;;;;5.72;5.32;;;;;;;9.62;90.74;101717.00;6213707;28;20229;-72
2021/05/28 07:10:46;;;;;;;6.50;5.90;;;;;;;9.61;90.34;101712.56;6214027;28;20195;-71
2021/05/28 07:13:50;;;;;;;7.15;6.05;;;;;;;9.73;89.84;101721.13;6213349;28;20277;-71
2021/05/28 07:16:55;;;;;;;6.60;6.00;;;;;;;9.65;90.65;101718.50;6214275;28;20186;-72
2021/05/28 07:19:58;;;;;;;5.80;5.32;;;;;;;9.53;91.09;101720.84;6213471;28;20432;-72
2021/05/28 07:23:02;;;;;;;5.70;5.25;;;;;;;9.68;90.74;101727.13;6214163;28;20193;-71
2021/05/28 07:26:06;;;;;;;5.97;5.57;;;;;;;9.69;90.05;101717.91;6213973;28;20186;-70
2021/05/28 07:29:09;;;;;;;5.65;5.00;;;;;;;9.63;89.50;101732.28;6213790;28;20186;-72
2021/05/28 07:32:14;;;;;;;7.68;5.55;;;;;;;9.69;89.77;101731.53;6212705;28;20563;-71
2021/05/28 07:35:19;;;;;;;5.85;5.45;;;;;;;9.57;90.32;101738.50;6213734;28;20248;-71
2021/05/28 07:38:23;;;;;;;5.47;5.07;;;;;;;9.43;89.84;101706.66;6212529;28;20465;-71
2021/05/28 07:41:27;;;;;;;6.10;5.65;;;;;;;9.45;89.36;101737.28;6213618;28;20193;-71
2021/05/28 07:44:35;;;;;;;5.72;5.32;;;;;;;9.54;90.47;101741.63;6213704;28;20198;-71
2021/05/28 07:47:39;;;;;;;6.25;5.65;;;;;;;9.62;89.51;101741.53;6213246;28;20217;-71
2021/05/28 07:50:47;;;;;;;6.32;5.82;;;;;;;9.63;90.08;101743.19;6213195;28;20193;-71
2021/05/28 07:53:51;;;;;;;6.28;5.78;;;;;;;9.72;90.10;101752.13;6212869;28;20289;-71
2021/05/28 07:56:55;;;;;;;5.80;5.30;;;;;;;9.73;89.10;101749.19;6213441;28;20186;-70
2021/05/28 07:59:58;;;;;;;6.65;6.05;;;;;;;9.76;89.42;101754.28;6212342;28;20492;-71
2021/05/28 08:03:03;;;;;;;6.28;5.82;;;;;;;9.95;88.25;101753.69;6213610;28;20205;-71
2021/05/28 08:06:07;;;;;;;5.65;5.35;;;;;;;9.96;88.05;101755.38;6213041;28;20245;-71
2021/05/28 08:09:11;;;;;;;6.30;5.63;;;;;;;9.94;88.91;101757.44;6213618;28;20186;-72
2021/05/28 08:12:14;;;;;;;6.28;5.78;;;;;;;10.04;89.17;101757.13;6212265;28;20500;-70
2021/05/28 08:15:19;;;;;;;6.00;5.60;;;;;;;9.99;89.33;101765.03;6212952;28;20221;-71
2021/05/28 08:18:24;;;;;;;6.78;5.80;;;;;;;10.02;88.34;101765.50;6216226;28;20453;-71
2021/05/28 08:21:28;;;;;;;8.23;6.03;;;;;;;10.05;88.28;101770.59;6218358;28;20218;-71
2021/05/28 08:24:31;;;;;;;6.60;6.10;;;;;;;10.13;88.64;101766.09;6216932;28;20409;-71
2021/05/28 08:27:35;;;;;;;8.00;6.63;;;;;;;9.92;88.95;101770.41;6216905;28;20416;-71
2021/05/28 08:30:40;;;;;;;12.80;7.70;;;;;;;9.93;89.22;101763.09;6218060;28;20237;-70
2021/05/28 08:33:45;;;;;;;8.88;7.40;;;;;;;9.92;89.44;101770.41;6217899;28;20214;-71
2021/05/28 08:36:50;;;;;;;6.75;6.15;;;;;;;9.90;88.81;101777.94;6217563;28;20187;-71
2021/05/28 08:39:53;;;;;;;6.53;5.97;;;;;;;9.92;88.69;101786.78;6216669;28;20249;-71
2021/05/28 08:42:59;;;;;;;7.13;6.03;;;;;;;9.92;89.90;101775.88;6217322;28;20190;-71
2021/05/28 08:46:07;;;;;;;6.68;6.10;;;;;;;10.00;89.27;101777.66;6216317;28;20197;-71
2021/05/28 08:49:11;;;;;;;7.53;6.70;;;;;;;10.00;89.24;101773.03;6217665;28;20193;-70
2021/05/28 08:52:16;;;;;;;7.30;6.60;;;;;;;10.11;88.66;101787.22;6216766;28;20196;-71
2021/05/28 08:55:20;;;;;;;6.45;5.95;;;;;;;10.26;87.97;101785.34;6199449;28;20226;-71
2021/05/28 08:58:23;;;;;;;6.43;5.88;;;;;;;10.31;88.35;101780.16;6216418;28;20485;-71
2021/05/28 09:01:27;;;;;;;5.78;5.28;;;;;;;10.40;87.12;101779.84;6216399;28;20492;-71
2021/05/28 09:04:32;;;;;;;6.07;5.60;;;;;;;10.19;86.78;101760.72;6215951;28;20229;-72
2021/05/28 09:07:37;;;;;;;6.40;5.85;;;;;;;10.17;86.91;101765.50;6217645;28;20261;-72
2021/05/28 09:10:42;;;;;;;5.93;5.10;;;;;;;10.49;86.36;101788.75;6216995;28;20186;-71
2021/05/28 09:13:49;;;;;;;5.68;5.20;;;;;;;10.50;85.88;101787.72;6217226;28;20187;-71
2021/05/28 09:16:53;;;;;;;5.47;5.18;;;;;;;10.58;86.22;101787.56;6217003;28;20225;-71
2021/05/28 09:20:00;;;;;;;5.30;5.00;;;;;;;10.65;85.33;101788.50;6216800;28;20186;-71
2021/05/28 09:23:13;;;;;;;5.70;5.13;;;;;;;10.65;86.11;101783.06;6215872;28;20186;-70
2021/05/28 09:26:18;;;;;;;5.82;5.15;;;;;;;10.80;85.98;101783.81;6216634;28;20213;-70
2021/05/28 09:29:21;;;;;;;5.25;4.75;;;;;;;10.64;85.60;101781.34;6215701;28;20310;-70
2021/05/28 09:32:26;;;;;;;5.15;4.85;;;;;;;10.42;86.35;101771.47;6216600;28;20190;-70
2021/05/28 09:35:31;;;;;;;5.30;4.93;;;;;;;10.60;87.47;101796.44;6216349;28;20214;-70
2021/05/28 09:38:34;;;;;;;5.15;4.90;;;;;;;10.72;85.59;101792.16;6198422;28;20230;-70
2021/05/28 09:41:48;;;;;;;5.35;4.90;;;;;;;10.87;85.40;101798.38;6215043;28;20253;-70
2021/05/28 09:44:53;;;;;;;6.78;5.75;;;;;;;11.03;85.19;101791.81;6216278;28;20194;-71
2021/05/28 09:47:57;;;;;;;5.95;5.40;;;;;;;10.90;84.57;101798.00;6216317;28;20301;-70
2021/05/28 09:51:07;;;;;;;5.13;4.82;;;;;;;10.93;84.80;101797.59;6214809;28;20470;-70
2021/05/28 09:54:15;;;;;;;5.05;4.50;;;;;;;11.11;84.41;101805.31;6214802;28;20532;-70
2021/05/28 09:57:33;;;;;;;4.80;4.60;;;;;;;10.99;84.13;101805.00;6215699;28;20296;-71
2021/05/28 10:00:39;;;;;;;5.10;4.80;;;;;;;11.06;83.92;101808.66;6215055;28;20218;-71
2021/05/28 10:03:42;;;;;;;5.00;4.68;;;;;;;11.08;84.61;101806.56;6215745;28;20202;-70
2021/05/28 10:06:48;;;;;;;4.45;4.20;;;;;;;11.07;83.13;101788.47;6214387;28;20536;-70
2021/05/28 10:09:53;;;;;;;4.72;4.22;;;;;;;11.23;83.49;101799.13;6214257;28;20187;-70
2021/05/28 10:12:57;;;;;;;4.35;4.15;;;;;;;11.49;82.07;101798.47;6214710;28;20187;-70
2021/05/28 10:16:01;;;;;;;4.32;4.00;;;;;;;11.31;82.26;101807.19;6214175;28;20240;-70
2021/05/28 10:19:05;;;;;;;4.97;4.03;;;;;;;11.45;82.25;101788.16;6214612;28;20187;-71
2021/05/28 10:22:12;;;;;;;4.72;4.50;;;;;;;11.57;82.20;101800.19;6214733;28;20224;-71
2021/05/28 10:25:16;;;;;;;4.70;4.20;;;;;;;11.79;81.51;101810.03;6215166;28;20194;-71
2021/05/28 10:28:21;;;;;;;4.65;4.20;;;;;;;11.66;81.67;101804.44;6213932;28;20373;-71
2021/05/28 10:31:54;;;;;;;3.90;3.70;;;;;;;11.77;80.42;101812.13;6214613;28;20285;-70
2021/05/28 10:35:09;;;;;;;8.95;4.50;;;;;;;11.89;80.38;101810.50;6214779;28;20265;-71
2021/05/28 10:38:36;;;;;;;7.45;4.68;;;;;;;12.23;79.52;101817.84;6214839;28;20186;-71
2021/05/28 10:41:42;;;;;;;5.75;3.80;;;;;;;12.22;78.39;101813.44;6213623;28;20218;-71
2021/05/28 10:44:46;;;;;;;4.03;3.83;;;;;;;12.25;77.57;101816.56;6214936;28;20270;-71
2021/05/28 10:47:50;;;;;;;5.03;4.60;;;;;;;12.36;79.02;101813.25;6213779;28;20245;-71
2021/05/28 10:50:53;;;;;;;4.22;3.90;;;;;;;12.47;78.17;101815.41;6214340;28;20240;-70
2021/05/28 10:54:27;;;;;;;5.60;4.00;;;;;;;12.58;77.57;101803.03;6213449;28;20253;-71
2021/05/28 10:57:34;;;;;;;4.20;3.78;;;;;;;12.57;75.86;101815.88;6226700;28;20394;-70
2021/05/28 11:00:41;;;;;;;7.18;4.20;;;;;;;12.52;76.44;101823.84;6213170;28;20412;-70
2021/05/28 11:03:46;;;;;;;6.85;4.40;;;;;;;12.51;77.51;101822.16;6196042;28;20202;-70
2021/05/28 11:07:15;;;;;;;10.75;4.00;;;;;;;12.72;75.55;101823.03;6214382;28;20201;-71
2021/05/28 11:10:24;;;;;;;4.13;3.80;;;;;;;12.82;74.73;101835.28;6213026;28;20208;-71
2021/05/28 11:13:29;;;;;;;4.88;4.18;;;;;;;12.77;74.30;101820.53;6214050;28;20201;-70
2021/05/28 11:17:16;;;;;;;6.72;4.38;;;;;;;13.07;74.75;101819.16;6212985;28;20277;-71
2021/05/28 11:20:26;;;;;;;8.30;4.53;;;;;;;12.86;74.72;101824.78;6212913;28;20413;-71
2021/05/28 11:23:42;;;;;;;5.15;4.75;;;;;;;12.78;75.40;101794.84;6213050;28;20186;-71
2021/05/28 11:26:46;;;;;;;;;;;;;;;12.98;73.63;101823.09;6213314;28;20394;-71
2021/05/28 11:29:53;;;;;;;4.13;3.92;;;;;;;13.16;74.43;101823.34;6213963;28;20178;-71
2021/05/28 11:32:57;;;;;;;;;;;;;;;13.02;72.05;101824.34;6213239;28;20500;-71
2021/05/28 11:36:01;;;;;;;3.63;3.53;;;;;;;13.36;72.02;101826.94;6214130;28;20632;-71
2021/05/28 11:39:08;;;;;;;4.38;3.50;;;;;;;13.18;71.75;101829.47;6213451;28;20186;-71
2021/05/28 11:42:20;;;;;;;4.28;4.07;;;;;;;13.04;72.06;101822.28;6213080;28;20186;-72
2021/05/28 11:45:25;;;;;;;3.38;3.25;;;;;;;13.17;72.92;101811.34;6213609;28;20195;-71
2021/05/28 11:48:29;;;;;;;3.50;3.30;;;;;;;13.27;71.74;101821.88;6213566;28;20228;-71
2021/05/28 11:51:32;;;;;;;3.72;3.60;;;;;;;13.21;71.41;101817.25;6213214;28;20250;-71
2021/05/28 11:54:37;;;;;;;3.83;3.60;;;;;;;13.13;71.54;101818.28;6213683;28;20159;-71
2021/05/28 11:57:55;;;;;;;3.60;3.40;;;;;;;13.44;71.02;101821.25;6212240;28;20516;-71
2021/05/28 12:01:02;;;;;;;3.53;3.42;;;;;;;13.27;70.64;101822.75;6212676;28;20253;-71
2021/05/28 12:04:15;;;;;;;3.72;3.60;;;;;;;13.40;72.00;101828.22;6213356;28;20248;-70
2021/05/28 12:07:18;;;;;;;10.25;3.72;;;;;;;13.55;71.36;101806.91;6213246;28;20230;-71
2021/05/28 12:10:23;;;;;;;4.78;3.88;;;;;;;13.48;71.50;101818.94;6213415;28;20186;-70
2021/05/28 12:13:28;;;;;;;4.57;4.05;;;;;;;13.43;71.78;101822.28;6212893;28;20190;-70
2021/05/28 12:16:36;;;;;;;3.50;3.38;;;;;;;13.56;71.94;101816.78;6212973;28;20257;-70
2021/05/28 12:19:40;;;;;;;3.88;3.25;;;;;;;13.70;70.84;101806.66;6212078;28;20269;-71
2021/05/28 12:23:01;;;;;;;3.05;2.90;;;;;;;13.74;69.88;101803.25;6213365;28;20245;-71
2021/05/28 12:26:07;;;;;;;3.20;3.20;;;;;;;13.72;69.99;101813.63;6213397;28;20222;-71
2021/05/28 12:29:11;;;;;;;3.58;3.40;;;;;;;13.69;69.72;101821.41;6213241;28;20329;-71
2021/05/28 12:32:16;;;;;;;;;;;;;;;14.04;70.15;101813.75;6213692;28;20233;-70
2021/05/28 12:35:21;;;;;;;3.35;3.25;;;;;;;14.21;70.01;101817.69;6212296;28;19976;-70
2021/05/28 12:38:25;;;;;;;;;;;;;;;14.46;69.19;101818.66;6212469;28;20202;-71
2021/05/28 12:41:31;;;;;;;;;;;;;;;14.46;68.44;101818.66;6213346;28;19930;-70
2021/05/28 12:44:34;;;;;;;4.22;3.70;;;;;;;14.60;67.29;101820.28;6213033;28;19918;-70
2021/05/28 12:47:45;;;;;;;;;;;;;;;14.76;67.38;101819.78;6195983;28;20057;-70
2021/05/28 12:50:50;;;;;;;;;;;;;;;14.70;65.18;101817.03;6212241;28;19917;-71
2021/05/28 12:53:53;;;;;;;;;;;;;;;14.56;64.63;101819.03;6212120;28;20145;-71
2021/05/28 12:56:57;;;;;;;;;;;;;;;14.90;65.45;101810.38;6211965;28;19957;-71
2021/05/28 13:00:00;;;;;;;;;;;;;;;15.09;64.63;101819.53;6213355;28;19981;-70
2021/05/28 13:03:08;;;;;;;;;;;;;;;15.25;63.80;101819.00;6213488;28;19918;-71
2021/05/28 13:06:36;;;;;;;;;;;;;;;15.02;62.72;101818.75;6216389;28;19924;-71
2021/05/28 13:09:39;;;;;;;3.30;3.00;;;;;;;15.09;63.63;101816.78;6211478;28;20507;-70
2021/05/28 13:12:43;;;;;;;3.00;2.90;;;;;;;14.90;64.60;101804.03;6216693;28;20186;-70
2021/05/28 13:15:48;;;;;;;3.22;3.13;;;;;;;15.07;65.55;101803.25;6215745;28;20210;-71
2021/05/28 13:18:53;;;;;;;3.17;2.88;;;;;;;15.21;63.93;101801.25;6217034;28;20187;-71
2021/05/28 13:21:58;;;;;;;2.95;2.75;;;;;;;15.19;63.39;101802.53;6216778;28;20186;-71
2021/05/28 13:25:13;;;;;;;2.97;2.88;;;;;;;14.89;63.55;101803.16;6215571;28;20342;-71
2021/05/28 13:28:18;;;;;;;2.78;2.78;;;;;;;14.91;63.82;101812.06;6216436;28;20191;-70
2021/05/28 13:31:22;;;;;;;3.30;3.00;;;;;;;14.94;63.27;101811.63;6216048;28;20225;-71
2021/05/28 13:34:26;;;;;;;3.17;2.95;;;;;;;15.58;62.58;101813.22;6216203;28;20221;-70
2021/05/28 13:37:30;;;;;;;5.97;3.08;;;;;;;16.21;60.72;101806.38;6215245;28;20466;-70
2021/05/28 13:40:40;;;;;;;3.17;3.08;;;;;;;16.08;61.55;101814.78;6216123;28;20061;-70
2021/05/28 13:43:44;;;;;;;;;;;;;;;16.04;60.11;101810.81;6215328;28;20265;-71
2021/05/28 13:46:47;;;;;;;;;;;;;;;16.04;60.15;101808.06;6216715;28;19985;-71
2021/05/28 13:50:11;;;;;;;2.88;2.63;;;;;;;15.79;59.78;101815.56;6215856;28;20061;-71
2021/05/28 13:53:31;;;;;;;4.57;2.88;;;;;;;16.57;59.56;101812.91;6216084;28;20225;-71
2021/05/28 13:56:52;;;;;;;;;;;;;;;16.17;59.08;101807.91;6215396;28;20050;-70
2021/05/28 13:59:56;;;;;;;;;;;;;;;16.26;59.09;101812.03;6215757;28;20039;-71
2021/05/28 14:03:00;;;;;;;14.85;3.25;;;;;;;16.07;59.58;101813.13;6214579;28;20117;-71
2021/05/28 14:06:05;;;;;;;3.38;3.17;;;;;;;16.15;60.07;101815.53;6214702;28;20241;-71
2021/05/28 14:09:09;;;;;;;2.97;2.78;;;;;;;16.51;57.21;101816.59;6214181;28;20421;-71
2021/05/28 14:12:13;;;;;;;3.17;2.97;;;;;;;16.61;57.10;101822.41;6214010;28;20376;-70
2021/05/28 14:15:17;;;;;;;;;;;;;;;16.45;57.49;101820.25;6215142;28;20186;-71
2021/05/28 14:18:26;;;;;;;;;;;;;;;16.62;57.60;101821.31;6214740;28;20252;-71
2021/05/28 14:21:30;;;;;;;;;;;;;;;16.55;57.63;101820.59;6214566;28;19918;-70
2021/05/28 14:24:34;;;;;;;;;;;;;;;16.34;58.29;101823.78;6215767;28;20001;-70
2021/05/28 14:27:38;;;;;;;;;;;;;;;16.48;57.40;101815.16;6214600;28;19996;-71
2021/05/28 14:30:42;;;;;;;;;;;;;;;16.59;56.32;101810.78;6215546;28;19964;-70
2021/05/28 14:33:51;;;;;;;;;;;;;;;16.47;55.62;101807.09;6214148;28;20160;-71
2021/05/28 14:36:57;;;;;;;;;;;;;;;16.48;56.09;101812.38;6215040;28;19917;-71